Portada
METAR-TAF:

METAR-TAF

Aeroports :

Anchorage, Alaska, Estats Units d'Amèrica

latitud: 61-10-28N, longitud: 149-59-46W, altitud: 44 m

Observació

L'informe es va fer fa 50 minuts, a les 02:53 UTC
Vent 8 kt del Oest/Nord-Oest
Temperatura 21°C
Humitat 43%
Pressió 1021 hPa
Visibilitat: 16.1 km
Escasses núvols a una alçada de 5500 ft
Cel ennuvolat a una alçada de 25000 ft

METAR: PANC 190253Z 30008KT 10SM FEW055 BKN250 21/08 A3015 RMK AO2 SLP210 T02060083 58000

Hora: 19:43 (03:43 UTC)

Pronòstic

L'informe es va fer fa 4 hores i 22 minuts, a les 23:21 UTC
Pronòstic vàlid del 19 a les 00 UTC al 20 a les 06 UTC
Vent 7 kt del Oest/Nord-Oest
Visibilitat: 10 km
Escasses núvols a una alçada de 5000 ft
Núvols disperses a una alçada de 20000 ft

TAF: PANC 182321Z 1900/2006 29007KT P6SM FEW050 SCT200

Observacions i pronòstics meteorològics de més de 4000 aeroports (METAR i TAF).

Les estacions disponibles són els punts grocs i vermells al mapa.

Posi el ratolí al punt desitjat per veure el nom de l'estació.

Feu clic per veure les observacions i els pronòstics meteorològics.

Per canviar el mapa: feu clic els botons verds amb una creu de color negre per apropar; al botó verd amb un guió per allunyar la imatge; o en les fletxes verdes per a mapes adjacents.


METAR-TAF: